createdAt,value
2023-01-23T00:04:34.436Z,102977.13
2023-01-23T00:09:36.553Z,102976.50
2023-01-23T00:14:40.006Z,102978.38
2023-01-23T00:19:41.996Z,102980.38
2023-01-23T00:24:44.062Z,102976.56
2023-01-23T00:29:47.562Z,102971.16
2023-01-23T00:34:49.708Z,102976.97
2023-01-23T00:39:51.665Z,102982.88
2023-01-23T00:44:55.107Z,102987.41
2023-01-23T00:49:57.258Z,102987.88
2023-01-23T00:54:59.374Z,102984.63
2023-01-23T01:00:03.741Z,102982.09
2023-01-23T01:05:06.842Z,102989.75
2023-01-23T01:10:12.707Z,102999.53
2023-01-23T01:15:16.507Z,103009.44
2023-01-23T01:20:18.933Z,103013.22
2023-01-23T01:25:21.998Z,103014.03
2023-01-23T01:30:25.786Z,103025.69
2023-01-23T01:35:27.521Z,103027.13
2023-01-23T01:40:34.030Z,103037.59
2023-01-23T01:46:10.821Z,103039.38
2023-01-23T01:51:19.624Z,103034.72
2023-01-23T01:56:22.167Z,103033.25
2023-01-23T02:01:26.792Z,103049.06
2023-01-23T02:06:29.356Z,103043.19
2023-01-23T02:11:31.542Z,103045.34
2023-01-23T02:16:37.222Z,103040.78
2023-01-23T02:21:41.594Z,103045.44
2023-01-23T02:26:46.860Z,103044.63
2023-01-23T02:31:49.017Z,103043.81
2023-01-23T02:36:51.248Z,103044.03
2023-01-23T02:41:56.549Z,103052.56
2023-01-23T02:47:01.232Z,103050.06
2023-01-23T02:52:03.444Z,103060.72
2023-01-23T02:57:07.006Z,103066.03
2023-01-23T03:02:09.528Z,103066.66
2023-01-23T03:07:11.471Z,103071.63
2023-01-23T03:12:14.910Z,103074.97
2023-01-23T03:17:17.011Z,103074.59
2023-01-23T03:22:19.092Z,103084.56
2023-01-23T03:27:22.227Z,103087.91
2023-01-23T03:32:24.132Z,103089.59
2023-01-23T03:37:26.113Z,103091.94
2023-01-23T03:42:29.740Z,103096.38
2023-01-23T03:47:31.698Z,103108.00
2023-01-23T03:52:33.680Z,103116.84
2023-01-23T03:57:39.347Z,103119.94
2023-01-23T04:02:41.232Z,103116.69
2023-01-23T04:07:43.659Z,103120.69
2023-01-23T04:12:47.097Z,103118.47
2023-01-23T04:17:49.222Z,103130.94
2023-01-23T04:22:51.417Z,103135.13
2023-01-23T04:27:54.675Z,103139.03
2023-01-23T04:32:56.743Z,103131.66
2023-01-23T04:37:58.902Z,103132.03
2023-01-23T04:43:02.721Z,103130.06
2023-01-23T04:48:05.474Z,103129.69
2023-01-23T04:53:07.757Z,103137.81
2023-01-23T04:58:11.168Z,103139.53
2023-01-23T05:03:13.789Z,103130.63
2023-01-23T05:08:16.144Z,103136.38
2023-01-23T05:13:19.743Z,103131.66
2023-01-23T05:18:21.779Z,103136.81
2023-01-23T05:23:23.990Z,103135.00
2023-01-23T05:28:27.627Z,103140.00
2023-01-23T05:33:29.485Z,103150.19
2023-01-23T05:38:31.429Z,103135.72
2023-01-23T05:43:34.853Z,103147.69
2023-01-23T05:48:36.964Z,103143.66
2023-01-23T05:53:39.022Z,103154.00
2023-01-23T05:58:42.651Z,103153.28
2023-01-23T06:03:45.150Z,103169.44
2023-01-23T06:08:47.558Z,103176.06
2023-01-23T06:13:51.081Z,103182.78
2023-01-23T06:18:53.304Z,103180.94
2023-01-23T06:23:55.152Z,103194.28
2023-01-23T06:28:58.835Z,103193.59
2023-01-23T06:34:00.919Z,103192.00
2023-01-23T06:39:03.119Z,103201.66
2023-01-23T06:44:06.546Z,103207.41
2023-01-23T06:49:08.508Z,103207.91
2023-01-23T06:54:10.780Z,103211.94
2023-01-23T06:59:14.403Z,103213.56
2023-01-23T07:04:16.619Z,103205.09
2023-01-23T07:09:19.102Z,103210.72
2023-01-23T07:14:22.967Z,103213.72
2023-01-23T07:19:25.086Z,103223.81
2023-01-23T07:24:26.888Z,103236.41
2023-01-23T07:29:30.326Z,103245.06
2023-01-23T07:34:32.668Z,103236.09
2023-01-23T07:39:34.780Z,103224.19
2023-01-23T07:44:38.236Z,103235.66
2023-01-23T07:49:40.517Z,103231.34
2023-01-23T07:54:42.241Z,103248.78
2023-01-23T07:59:47.341Z,103244.63
2023-01-23T08:04:49.506Z,103246.25
2023-01-23T08:09:51.526Z,103251.47
2023-01-23T08:14:54.884Z,103247.31
2023-01-23T08:19:56.985Z,103256.28
2023-01-23T08:24:59.083Z,103264.34
2023-01-23T08:30:02.701Z,103256.59
2023-01-23T08:35:05.637Z,103265.66
2023-01-23T08:40:09.093Z,103281.06
2023-01-23T08:45:12.638Z,103292.66
2023-01-23T08:50:15.121Z,103303.53
2023-01-23T08:55:17.476Z,103312.00
2023-01-23T09:00:23.038Z,103323.06
2023-01-23T09:05:25.127Z,103324.47
2023-01-23T09:10:27.508Z,103316.81
2023-01-23T09:15:31.468Z,103332.53
2023-01-23T09:20:33.972Z,103353.50
2023-01-23T09:25:37.736Z,103358.91
2023-01-23T09:30:41.566Z,103362.25
2023-01-23T09:35:43.683Z,103359.34
2023-01-23T09:40:49.944Z,103371.41
2023-01-23T09:46:03.197Z,103366.69
2023-01-23T09:51:12.991Z,103375.03
2023-01-23T09:56:28.533Z,103356.88
2023-01-23T10:01:31.931Z,103357.88
2023-01-23T10:06:54.350Z,103362.53
2023-01-23T10:12:04.291Z,103375.00
2023-01-23T10:17:15.932Z,103369.75
2023-01-23T10:22:31.634Z,103365.91
2023-01-23T10:27:35.847Z,103372.16
2023-01-23T10:32:46.889Z,103372.69
2023-01-23T10:37:54.139Z,103376.13
2023-01-23T10:43:02.372Z,103367.53
2023-01-23T10:48:30.212Z,103370.13
2023-01-23T10:53:32.416Z,103370.13
2023-01-23T10:58:39.691Z,103355.63
2023-01-23T11:03:46.164Z,103358.00
2023-01-23T11:08:55.525Z,103357.38
2023-01-23T11:14:07.928Z,103359.16
2023-01-23T11:19:18.711Z,103360.75
2023-01-23T11:24:39.296Z,103348.19
2023-01-23T11:30:03.331Z,103344.06
2023-01-23T11:35:15.057Z,103337.63
2023-01-23T11:40:20.408Z,103328.56
2023-01-23T11:45:39.073Z,103345.59
2023-01-23T11:50:55.350Z,103338.88
2023-01-23T11:56:23.999Z,103342.63
2023-01-23T12:01:31.440Z,103341.50
2023-01-23T12:06:44.715Z,103332.22
2023-01-23T12:12:04.632Z,103326.88
2023-01-23T12:17:22.315Z,103318.69
2023-01-23T12:22:35.724Z,103317.53
2023-01-23T12:27:42.711Z,103317.47
2023-01-23T12:33:00.903Z,103314.09
2023-01-23T12:38:24.303Z,103314.91
2023-01-23T12:43:36.796Z,103316.53
2023-01-23T12:48:45.877Z,103300.09
2023-01-23T12:53:55.321Z,103299.34
2023-01-23T12:59:06.409Z,103304.41
2023-01-23T13:04:22.202Z,103308.53
2023-01-23T13:09:34.917Z,103318.19
2023-01-23T13:15:00.716Z,103320.25
2023-01-23T13:20:24.037Z,103327.22
2023-01-23T13:25:27.741Z,103319.13
2023-01-23T13:30:43.305Z,103329.47
2023-01-23T13:35:52.946Z,103333.34
2023-01-23T13:41:30.100Z,103330.25
2023-01-23T14:24:02.081Z,103318.59
2023-01-23T14:29:20.444Z,103336.56
2023-01-23T14:34:24.581Z,103337.56
2023-01-23T14:39:28.897Z,103343.28
2023-01-23T14:44:39.339Z,103338.41
2023-01-23T14:49:41.694Z,103337.00
2023-01-23T14:54:53.427Z,103344.69
2023-01-23T14:59:59.023Z,103359.44
2023-01-23T15:05:08.214Z,103354.22
2023-01-23T15:10:15.027Z,103358.53
2023-01-23T15:15:21.372Z,103364.47
2023-01-23T15:20:32.626Z,103365.41
2023-01-23T15:25:34.712Z,103362.69
2023-01-23T15:30:46.276Z,103362.88
2023-01-23T15:35:49.059Z,103377.88
2023-01-23T15:40:51.319Z,103374.09
2023-01-23T15:45:54.856Z,103379.66
2023-01-23T15:50:57.028Z,103386.09
2023-01-23T15:56:00.857Z,103377.72
2023-01-23T16:01:05.050Z,103386.28
2023-01-23T16:06:11.561Z,103390.91
2023-01-23T16:11:13.824Z,103396.00
2023-01-23T16:16:18.887Z,103397.38
2023-01-23T16:21:27.627Z,103402.84
2023-01-23T16:26:30.370Z,103402.84
2023-01-23T16:31:36.540Z,103409.22
2023-01-23T16:36:39.709Z,103408.50
2023-01-23T16:41:41.635Z,103400.41
2023-01-23T16:46:45.769Z,103406.88
2023-01-23T16:51:56.585Z,103401.63
2023-01-23T16:56:58.963Z,103410.28
2023-01-23T17:02:08.184Z,103411.72
2023-01-23T17:07:13.816Z,103418.59
2023-01-23T17:12:18.611Z,103416.75
2023-01-23T17:17:28.049Z,103425.84
2023-01-23T17:22:34.245Z,103423.38
2023-01-23T17:27:44.810Z,103422.22
2023-01-23T17:32:52.247Z,103425.22
2023-01-23T17:37:54.855Z,103423.22
2023-01-23T17:42:56.905Z,103418.59
2023-01-23T17:48:00.383Z,103424.41
2023-01-23T17:53:02.511Z,103432.59
2023-01-23T17:58:04.255Z,103439.53
2023-01-23T18:03:11.817Z,103441.06
2023-01-23T18:08:15.344Z,103420.16
2023-01-23T18:13:20.308Z,103429.97
2023-01-23T18:18:29.448Z,103422.59
2023-01-23T18:23:32.554Z,103432.34
2023-01-23T18:28:42.592Z,103436.66
2023-01-23T18:34:04.579Z,103434.47
2023-01-23T18:39:22.283Z,103438.81
2023-01-23T18:44:26.184Z,103426.81
2023-01-23T18:49:32.874Z,103431.31
2023-01-23T18:54:43.109Z,103435.41
2023-01-23T18:59:49.537Z,103432.78
2023-01-23T19:04:58.315Z,103440.44
2023-01-23T19:10:00.425Z,103433.69
2023-01-23T19:15:10.983Z,103429.66
2023-01-23T19:20:23.711Z,103431.47
2023-01-23T19:25:25.880Z,103430.84
2023-01-23T19:30:28.534Z,103442.16
2023-01-23T19:35:32.121Z,103445.97
2023-01-23T19:40:35.002Z,103447.69
2023-01-23T19:45:37.359Z,103439.72
2023-01-23T19:50:40.725Z,103449.19
2023-01-23T19:55:43.054Z,103449.41
2023-01-23T20:00:45.064Z,103452.81
2023-01-23T20:05:48.178Z,103458.97
2023-01-23T20:10:50.355Z,103467.03
2023-01-23T20:15:52.178Z,103455.66
2023-01-23T20:20:59.587Z,103462.28
2023-01-23T20:26:02.511Z,103480.41
2023-01-23T20:31:06.740Z,103467.25
2023-01-23T20:36:10.999Z,103473.16
2023-01-23T20:41:15.087Z,103480.03
2023-01-23T20:46:17.112Z,103470.56
2023-01-23T20:51:20.287Z,103473.16
2023-01-23T20:56:22.195Z,103485.47
2023-01-23T21:01:27.566Z,103488.47
2023-01-23T21:06:31.018Z,103496.00
2023-01-23T21:11:32.852Z,103489.09
2023-01-23T21:16:35.500Z,103491.41
2023-01-23T21:21:38.786Z,103497.84
2023-01-23T21:26:40.721Z,103503.97
2023-01-23T21:31:43.376Z,103492.97
2023-01-23T21:36:47.124Z,103485.84
2023-01-23T21:41:48.994Z,103483.59
2023-01-23T21:46:50.687Z,103486.25
2023-01-23T21:51:54.229Z,103484.00
2023-01-23T21:56:55.991Z,103498.56
2023-01-23T22:01:58.053Z,103489.69
2023-01-23T22:07:01.616Z,103487.25
2023-01-23T22:12:03.557Z,103478.72
2023-01-23T22:17:05.688Z,103476.38
2023-01-23T22:22:09.611Z,103473.53
2023-01-23T22:27:11.365Z,103481.38
2023-01-23T22:32:13.824Z,103486.84
2023-01-23T22:37:17.716Z,103492.34
2023-01-23T22:42:19.845Z,103489.13
2023-01-23T22:47:22.001Z,103493.84
2023-01-23T22:52:25.192Z,103493.66
2023-01-23T22:57:26.869Z,103495.34
2023-01-23T23:02:29.065Z,103491.66
2023-01-23T23:07:32.633Z,103496.81
2023-01-23T23:12:35.023Z,103494.78
2023-01-23T23:17:36.784Z,103502.03
2023-01-23T23:22:42.423Z,103500.75
2023-01-23T23:27:44.132Z,103496.91
2023-01-23T23:32:46.125Z,103480.31
2023-01-23T23:37:49.452Z,103477.59
2023-01-23T23:42:51.642Z,103470.75
2023-01-23T23:47:53.857Z,103476.69
2023-01-23T23:52:57.169Z,103476.94
2023-01-23T23:57:59.328Z,103476.28
